Terminal Aerodrome Forecast
Issued by NWS

Home | Current Version | Previous Version | Text Only | Print | Product List | Glossary On
Versions: 1 2 3 4 5 6 7 8 9 10 11 12 13 14 15 16
000
FTUS45 KABQ 241700
TAFAEG
TAF
KAEG 241726Z 2418/2518 VRB05KT P6SM FEW080
     FM241930 19010KT P6SM SCT090
     FM242300 22010KT P6SM SCT110
     FM250300 VRB05KT P6SM FEW120 SCT200=

USA.gov is the U.S. government's official web portal to all federal, state and local government web resources and services.